14 augustus 2022

Tijd Code Weer Temp. Zicht Plafond Wind METAR/SPECI
01:30
V
28 °C 10 km+ - Var Var 2 kt METAR LFBO 132330Z AUTO VRB02KT 9999 //////TCU 28/17 Q1009 TEMPO 4000 SHRA BKN012 FEW060CB
01:00
V
28 °C 10 km+ 13.000 ft 100° 100° 6 kt METAR LFBO 132300Z AUTO 10006KT 060V140 9999 FEW049/// BKN130/// OVC150/// ///TCU 28/18 Q1009 TEMPO 29020G30KT 4000 SHRA BKN012 FEW060CB
00:30
V
28 °C 10 km+ - 050° 050° 6 kt METAR LFBO 132230Z AUTO 05006KT 010V070 9999 //////TCU 28/17 Q1009 TEMPO 29020G30KT 4000 SHRA BKN012 FEW060CB
00:00
V
28 °C 10 km+ - 350° 350° 7 kt METAR LFBO 132200Z AUTO 35007KT 320V020 9999 ///CB 28/16 Q1010 TEMPO 29020G30KT 4000 TSRA

13 augustus 2022

Tijd Code Weer Temp. Zicht Plafond Wind METAR/SPECI
23:30
V
29 °C 10 km+ - 310° 310° 10 kt METAR LFBO 132130Z AUTO 31010KT 9999 //////TCU 29/16 Q1010 TEMPO 29020G30KT 4000 TSRA SCT040TCU SCT060CB
23:00
V
29 °C 10 km+ - 190° 190° 2 kt METAR LFBO 132100Z AUTO 19002KT 9999 //////CB 29/16 Q1010 TEMPO 29020G30KT 4000 TSRA
22:30
V
30 °C 10 km+ - 220° 220° 7 kt METAR LFBO 132030Z AUTO 22007KT 180V240 9999 //////CB 30/17 Q1010 TEMPO 29020G30KT 4000 TSRA
22:00
V
30 °C 10 km+ - 200° 200° 4 kt METAR LFBO 132000Z AUTO 20004KT 170V230 9999 //////CB 30/18 Q1009 TEMPO VRB15G25KT TSRA
21:30
V
31 °C 10 km+ - 210° 210° 7 kt METAR LFBO 131930Z AUTO 21007KT 160V250 CAVOK 31/18 Q1009 TEMPO VRB15G25KT TSRA SCT080CB
21:00
V
31 °C 10 km+ - 140° 140° 3 kt METAR LFBO 131900Z AUTO 14003KT 090V190 9999 //////TCU 31/19 Q1009 TEMPO VRB15G25KT TSRA SCT080CB
20:30
V
32 °C 10 km+ - Var Var 2 kt METAR LFBO 131830Z AUTO VRB02KT 9999 //////TCU 32/19 Q1009 TEMPO VRB15G25KT TSRA SCT080CB
20:00
V
32 °C 10 km+ - 230° 230° 7 kt METAR LFBO 131800Z AUTO 23007KT CAVOK 32/19 Q1009 TEMPO VRB15G25KT TSRA SCT080CB
19:30
V
32 °C 10 km+ - 210° 210° 13 kt METAR LFBO 131730Z AUTO 21013KT 9999 //////TCU 32/19 Q1010 TEMPO VRB15G25KT TSRA SCT080CB
19:00
V
33 °C 10 km+ - 200° 200° 7 kt METAR LFBO 131700Z AUTO 20007KT 170V240 9999 //////TCU 33/18 Q1009 TEMPO 23020G30KT TSRA SCT080CB
18:30
V
34 °C 10 km+ - 190° 190° 6 kt METAR LFBO 131630Z AUTO 19006KT 160V240 9999 //////CB 34/17 Q1009 TEMPO 23020G30KT TSRA NSC
18:00
V
34 °C 10 km+ - 170° 170° 5 kt METAR LFBO 131600Z AUTO 17005KT 9999 //////CB 34/17 Q1009 BECMG NSC
17:30
V
35 °C 10 km+ - 230° 230° 3 kt METAR LFBO 131530Z AUTO 23003KT 180V290 CAVOK 35/17 Q1010 NOSIG
17:00
V
35 °C 10 km+ - 290° 290° 5 kt METAR LFBO 131500Z AUTO 29005KT 230V340 CAVOK 35/17 Q1010 NOSIG
16:30
V
35 °C 10 km+ - 220° 220° 3 kt METAR LFBO 131430Z AUTO 22003KT 130V280 CAVOK 35/18 Q1010 NOSIG
16:00
V
34 °C 10 km+ - Var Var 3 kt METAR LFBO 131400Z AUTO VRB03KT CAVOK 34/18 Q1010 NOSIG
15:30
V
34 °C 10 km+ - 300° 300° 4 kt METAR LFBO 131330Z AUTO 30004KT 210V360 9999 FEW010 34/18 Q1011 NOSIG
15:00
V
33 °C 10 km+ - 020° 020° 4 kt METAR LFBO 131300Z AUTO 02004KT 310V120 CAVOK 33/18 Q1011 NOSIG
14:30
V
32 °C 10 km+ - Var Var 3 kt METAR LFBO 131230Z AUTO VRB03KT CAVOK 32/18 Q1011 NOSIG
14:00
V
31 °C 10 km+ - Var Var 3 kt METAR LFBO 131200Z AUTO VRB03KT CAVOK 31/18 Q1012 NOSIG
13:30
V
30 °C 10 km+ - Var Var 3 kt METAR LFBO 131130Z AUTO VRB03KT CAVOK 30/18 Q1012 NOSIG
13:00
V
29 °C 10 km+ - Var Var 3 kt METAR LFBO 131100Z AUTO VRB03KT CAVOK 29/18 Q1012 NOSIG
12:30
V
28 °C 10 km+ - 070° 070° 4 kt METAR LFBO 131030Z AUTO 07004KT 020V150 CAVOK 28/19 Q1012 NOSIG
12:00
V
28 °C 10 km+ - 360° 360° 3 kt METAR LFBO 131000Z AUTO 36003KT 290V060 CAVOK 28/18 Q1013 NOSIG
11:30
V
27 °C 10 km+ - Var Var 3 kt METAR LFBO 130930Z AUTO VRB03KT 9999 FEW011 27/18 Q1013 NOSIG
11:00
V
25 °C 10 km+ - 310° 310° 3 kt METAR LFBO 130900Z AUTO 31003KT 300V360 CAVOK 25/18 Q1013 NOSIG
10:30
V
25 °C 10 km+ - 300° 300° 3 kt METAR LFBO 130830Z AUTO 30003KT 220V010 9999 FEW021 SCT130 25/18 Q1013 NOSIG
10:00
M
24 °C 10 km+ 1.900 ft 330° 330° 6 kt METAR LFBO 130800Z AUTO 33006KT 290V350 9999 BKN019 24/19 Q1013 NOSIG
09:30
M
23 °C 10 km+ 1.800 ft 290° 290° 6 kt METAR LFBO 130730Z AUTO 29006KT 260V320 9999 BKN018 OVC130 23/18 Q1013 NOSIG
09:00
M
23 °C 10 km+ 1.700 ft 300° 300° 6 kt METAR LFBO 130700Z AUTO 30006KT 270V360 9999 OVC017 23/18 Q1013 NOSIG
08:30
M
22 °C 10 km+ 1.700 ft 340° 340° 6 kt METAR LFBO 130630Z AUTO 34006KT 9999 OVC017 22/19 Q1013 NOSIG
08:00
M
22 °C 10 km+ 1.700 ft 310° 310° 8 kt METAR LFBO 130600Z AUTO 31008KT 9999 OVC017 22/19 Q1013 NOSIG
07:30
M
22 °C 10 km+ 1.600 ft 320° 320° 7 kt METAR LFBO 130530Z AUTO 32007KT 9999 OVC016 22/19 Q1013 NOSIG
07:00
M
22 °C 10 km+ 1.600 ft 300° 300° 5 kt METAR LFBO 130500Z AUTO 30005KT 9999 OVC016 22/19 Q1013 TEMPO BKN012
06:30
M
22 °C 10 km+ 1.400 ft 290° 290° 5 kt METAR LFBO 130430Z AUTO 29005KT 240V310 9999 BKN014 22/19 Q1013 BECMG NSC
06:00
M
22 °C 10 km+ 1.300 ft 290° 290° 6 kt METAR LFBO 130400Z AUTO 29006KT 9999 BKN013 BKN140 22/19 Q1013 NOSIG
05:30
V
22 °C 10 km+ - 280° 280° 7 kt METAR LFBO 130330Z AUTO 28007KT 9999 FEW013 SCT140 22/19 Q1013 NOSIG
05:00
V
22 °C 10 km+ - 280° 280° 8 kt METAR LFBO 130300Z AUTO 28008KT 9999 FEW014 22/19 Q1013 NOSIG
04:30
V
22 °C 10 km+ - 270° 270° 11 kt METAR LFBO 130230Z AUTO 27011KT CAVOK 22/19 Q1013 NOSIG
04:00
V
23 °C 10 km+ - 270° 270° 10 kt METAR LFBO 130200Z AUTO 27010KT CAVOK 23/19 Q1013 NOSIG
03:30
V
23 °C 10 km+ - 270° 270° 12 kt METAR LFBO 130130Z AUTO 27012KT CAVOK 23/19 Q1013 NOSIG
03:00
V
24 °C 10 km+ - 270° 270° 13 kt METAR LFBO 130100Z AUTO 27013KT CAVOK 24/19 Q1012 NOSIG
02:30
V
26 °C 10 km+ - 280° 280° 12 kt METAR LFBO 130030Z AUTO 28012KT CAVOK 26/18 Q1012 NOSIG
02:00
V
27 °C 10 km+ - 290° 290° 14 kt METAR LFBO 130000Z AUTO 29014KT CAVOK 27/17 Q1012 BECMG 31004KT
01:30
V
29 °C 10 km+ - 290° 290° 15 kt METAR LFBO 122330Z AUTO 29015KT CAVOK 29/16 Q1012 NOSIG
01:00
V
30 °C 10 km+ - 290° 290° 10 kt METAR LFBO 122300Z AUTO 29010KT CAVOK 30/16 Q1011 NOSIG
00:30
V
31 °C 10 km+ - 290° 290° 13 kt METAR LFBO 122230Z AUTO 29013KT CAVOK 31/16 Q1011 NOSIG
00:00
V
32 °C 10 km+ - 280° 280° 13 kt METAR LFBO 122200Z AUTO 28013KT CAVOK 32/16 Q1011 NOSIG

12 augustus 2022

Tijd Code Weer Temp. Zicht Plafond Wind METAR/SPECI
23:30
V
32 °C 10 km+ - 280° 280° 8 kt METAR LFBO 122130Z AUTO 28008KT CAVOK 32/16 Q1011 NOSIG
23:00
V
33 °C 10 km+ - 300° 300° 5 kt METAR LFBO 122100Z AUTO 30005KT CAVOK 33/16 Q1011 NOSIG
22:30
V
33 °C 10 km+ - 290° 290° 5 kt METAR LFBO 122030Z AUTO 29005KT CAVOK 33/16 Q1011 NOSIG
22:00
V
34 °C 10 km+ - 310° 310° 5 kt METAR LFBO 122000Z AUTO 31005KT CAVOK 34/16 Q1010 NOSIG
21:30
V
35 °C 10 km+ - 320° 320° 4 kt METAR LFBO 121930Z AUTO 32004KT 300V010 CAVOK 35/16 Q1010 NOSIG
21:00
V
36 °C 10 km+ - 350° 350° 5 kt METAR LFBO 121900Z AUTO 35005KT 320V020 CAVOK 36/16 Q1010 NOSIG
20:30
V
37 °C 10 km+ - 350° 350° 7 kt METAR LFBO 121830Z AUTO 35007KT CAVOK 37/15 Q1010 NOSIG
20:00
V
38 °C 10 km+ - 340° 340° 8 kt METAR LFBO 121800Z AUTO 34008KT 310V010 CAVOK 38/15 Q1010 NOSIG
19:30
V
38 °C 10 km+ - 320° 320° 6 kt METAR LFBO 121730Z AUTO 32006KT 270V020 CAVOK 38/15 Q1010 NOSIG
19:00
V
39 °C 10 km+ - 290° 290° 8 kt METAR LFBO 121700Z AUTO 29008KT 250V320 CAVOK 39/15 Q1010 NOSIG
18:30
V
39 °C 10 km+ - 310° 310° 9 kt METAR LFBO 121630Z AUTO 31009KT 270V350 CAVOK 39/14 Q1010 NOSIG
18:00
V
39 °C 10 km+ - 300° 300° 7 kt METAR LFBO 121600Z AUTO 30007KT 270V350 CAVOK 39/15 Q1010 NOSIG
17:30
V
39 °C 10 km+ - 330° 330° 11 kt METAR LFBO 121530Z AUTO 33011KT 290V010 CAVOK 39/16 Q1010 NOSIG
17:00
V
40 °C 10 km+ - 340° 340° 8 kt METAR LFBO 121500Z AUTO 34008KT 290V050 CAVOK 40/15 Q1010 NOSIG
16:30
V
39 °C 10 km+ - 290° 290° 8 kt METAR LFBO 121430Z AUTO 29008KT 250V350 CAVOK 39/15 Q1011 NOSIG
16:00
I
40 °C 2,2 km - 310° 310° 7 kt METAR LFBO 121400Z AUTO 31007KT 230V010 9999 2200 NSC 40/15 Q1011 NOSIG
15:30
V
39 °C 10 km+ - 310° 310° 8 kt METAR LFBO 121330Z AUTO 31008KT 250V350 9999 FEW011 39/15 Q1011 NOSIG
15:00
V
39 °C 10 km+ - 330° 330° 7 kt METAR LFBO 121300Z AUTO 33007KT 270V020 CAVOK 39/16 Q1012 NOSIG
14:30
V
38 °C 10 km+ - 320° 320° 7 kt METAR LFBO 121230Z AUTO 32007KT 270V010 9999 FEW020 38/15 Q1012 NOSIG
14:00
V
37 °C 10 km+ - 330° 330° 4 kt METAR LFBO 121200Z AUTO 33004KT 240V040 CAVOK 37/17 Q1012 NOSIG
13:30
V
37 °C 10 km+ - Var Var 4 kt METAR LFBO 121130Z AUTO VRB04KT CAVOK 37/18 Q1012 NOSIG
13:00
V
36 °C 10 km+ - Var Var 4 kt METAR LFBO 121100Z AUTO VRB04KT CAVOK 36/17 Q1013 NOSIG
12:30
I
34 °C 4 km - Var Var 3 kt METAR LFBO 121030Z AUTO VRB03KT 9999 4000 NSC 34/19 Q1013 NOSIG
12:00
V
33 °C 10 km+ - Var Var 3 kt METAR LFBO 121000Z AUTO VRB03KT CAVOK 33/19 Q1013 NOSIG
11:30
V
32 °C 10 km+ - Var Var 2 kt METAR LFBO 120930Z AUTO VRB02KT CAVOK 32/19 Q1013 BECMG 31012KT
11:00
V
31 °C 10 km+ - 260° 260° 4 kt METAR LFBO 120900Z AUTO 26004KT 220V340 CAVOK 31/19 Q1014 NOSIG
10:30
V
30 °C 10 km+ 18.000 ft 250° 250° 5 kt METAR LFBO 120830Z AUTO 25005KT 210V320 9999 FEW007 BKN180 30/20 Q1014 NOSIG
10:00
V
28 °C 10 km+ - 200° 200° 6 kt METAR LFBO 120800Z AUTO 20006KT 150V260 CAVOK 28/21 Q1014 NOSIG
09:30
V
26 °C 10 km+ - 190° 190° 7 kt METAR LFBO 120730Z AUTO 19007KT CAVOK 26/21 Q1014 NOSIG
09:00
V
25 °C 10 km+ - 180° 180° 7 kt METAR LFBO 120700Z AUTO 18007KT 9999 FEW007 25/22 Q1013 NOSIG
08:30
V
24 °C 10 km+ - 190° 190° 6 kt METAR LFBO 120630Z AUTO 19006KT CAVOK 24/22 Q1013 NOSIG
08:00
V
23 °C 10 km+ - 180° 180° 5 kt METAR LFBO 120600Z AUTO 18005KT 150V210 CAVOK 23/22 Q1013 NOSIG
07:30
V
23 °C 10 km+ - 180° 180° 5 kt METAR LFBO 120530Z AUTO 18005KT 9999 FEW007 23/22 Q1013 NOSIG
07:00
V
23 °C 10 km+ - 180° 180° 4 kt METAR LFBO 120500Z AUTO 18004KT 9999 FEW007 23/21 Q1013 NOSIG
06:30
V
23 °C 10 km+ - 180° 180° 4 kt METAR LFBO 120430Z AUTO 18004KT 140V210 9999 FEW008 23/21 Q1013 NOSIG
06:00
V
23 °C 10 km+ - 190° 190° 5 kt METAR LFBO 120400Z AUTO 19005KT CAVOK 23/21 Q1013 NOSIG
05:30
V
24 °C 10 km+ - 160° 160° 5 kt METAR LFBO 120330Z AUTO 16005KT CAVOK 24/21 Q1013 NOSIG
05:00
V
24 °C 10 km+ - 160° 160° 3 kt METAR LFBO 120300Z AUTO 16003KT CAVOK 24/21 Q1013 NOSIG
04:30
V
24 °C 10 km+ - 160° 160° 5 kt METAR LFBO 120230Z AUTO 16005KT CAVOK 24/21 Q1013 NOSIG
04:00
V
25 °C 10 km+ - 140° 140° 7 kt METAR LFBO 120200Z AUTO 14007KT CAVOK 25/21 Q1013 NOSIG
03:30
V
25 °C 10 km+ - 140° 140° 6 kt METAR LFBO 120130Z AUTO 14006KT CAVOK 25/21 Q1013 NOSIG
03:00
V
25 °C 10 km+ - 170° 170° 4 kt METAR LFBO 120100Z AUTO 17004KT CAVOK 25/21 Q1013 NOSIG
02:30
V
25 °C 10 km+ - 190° 190° 4 kt METAR LFBO 120030Z AUTO 19004KT CAVOK 25/21 Q1013 NOSIG
02:00
V
25 °C 10 km+ - 180° 180° 5 kt METAR LFBO 120000Z AUTO 18005KT CAVOK 25/21 Q1013 NOSIG
01:30
V
26 °C 10 km+ - 160° 160° 6 kt METAR LFBO 112330Z AUTO 16006KT CAVOK 26/21 Q1013 NOSIG
01:00
V
27 °C 10 km+ - 150° 150° 8 kt METAR LFBO 112300Z AUTO 15008KT CAVOK 27/21 Q1013 NOSIG
00:30
V
27 °C 10 km+ - 140° 140° 7 kt METAR LFBO 112230Z AUTO 14007KT CAVOK 27/21 Q1013 NOSIG
00:00
V
27 °C 10 km+ - 150° 150° 6 kt METAR LFBO 112200Z AUTO 15006KT CAVOK 27/21 Q1013 NOSIG

11 augustus 2022

Tijd Code Weer Temp. Zicht Plafond Wind METAR/SPECI
23:30
V
27 °C 10 km+ - 160° 160° 6 kt METAR LFBO 112130Z AUTO 16006KT 9999 FEW007 27/21 Q1013 NOSIG
23:00
V
28 °C 10 km+ - 160° 160° 7 kt METAR LFBO 112100Z AUTO 16007KT CAVOK 28/22 Q1013 NOSIG
22:30
V
29 °C 10 km+ - 150° 150° 7 kt METAR LFBO 112030Z AUTO 15007KT CAVOK 29/22 Q1013 NOSIG
22:00
V
29 °C 10 km+ - 150° 150° 9 kt METAR LFBO 112000Z AUTO 15009KT CAVOK 29/21 Q1013 NOSIG
21:30
V
30 °C 10 km+ - 150° 150° 10 kt METAR LFBO 111930Z AUTO 15010KT CAVOK 30/21 Q1013 NOSIG
21:00
V
32 °C 10 km+ - 140° 140° 8 kt METAR LFBO 111900Z AUTO 14008KT CAVOK 32/20 Q1012 NOSIG
20:30
V
33 °C 10 km+ - 150° 150° 10 kt METAR LFBO 111830Z AUTO 15010KT CAVOK 33/20 Q1012 NOSIG
20:00
V
34 °C 10 km+ - 140° 140° 10 kt METAR LFBO 111800Z AUTO 14010KT 9999 FEW007 34/18 Q1012 NOSIG
19:30
V
35 °C 10 km+ - 160° 160° 10 kt METAR LFBO 111730Z AUTO 16010KT CAVOK 35/16 Q1012 NOSIG
19:00
V
36 °C 10 km+ - 150° 150° 9 kt METAR LFBO 111700Z AUTO 15009KT CAVOK 36/16 Q1012 NOSIG
18:30
V
37 °C 10 km+ - 150° 150° 7 kt METAR LFBO 111630Z AUTO 15007KT 100V180 CAVOK 37/16 Q1012 NOSIG
18:00
V
37 °C 10 km+ - 130° 130° 7 kt METAR LFBO 111600Z AUTO 13007KT 090V180 CAVOK 37/17 Q1012 NOSIG
17:30
V
37 °C 10 km+ - 130° 130° 10 kt METAR LFBO 111530Z AUTO 13010KT 100V170 CAVOK 37/17 Q1012 NOSIG
17:00
V
36 °C 10 km+ - 120° 120° 8 kt METAR LFBO 111500Z AUTO 12008KT 090V160 CAVOK 36/16 Q1012 NOSIG
Oudere gegevens

Met cookies volgen wij en derde partijen jouw internetgedrag binnen onze site. Als je verdergaat gaan we ervan uit dat je dit goedvindt. Meer info